Time,TemperatureF,DewpointF,PressureIn,WindDirection,WindDirectionDegrees,WindSpeedMPH,WindSpeedGustMPH,Humidity,HourlyPrecipIn,Conditions,Clouds,dailyrainin,SoftwareType,DateUTC
2012-11-03 00:00:00,58.0,27.5,29.83,SSE,158,2.0,5.0,31,0.00,,,0.00,WUHU216DAVISVP2,2012-11-03 07:00:00,
2012-11-03 00:30:00,59.6,28.1,29.83,SE,135,2.0,6.0,30,0.00,,,0.00,WUHU216DAVISVP2,2012-11-03 07:30:00,
2012-11-03 01:00:00,62.0,29.3,29.84,SE,135,1.0,3.0,29,0.00,,,0.00,WUHU216DAVISVP2,2012-11-03 08:00:00,
2012-11-03 01:30:00,60.1,28.5,29.85,SE,135,1.0,3.0,30,0.00,,,0.00,WUHU216DAVISVP2,2012-11-03 08:30:00,
2012-11-03 02:00:00,59.7,29.0,29.85,SE,135,1.0,3.0,31,0.00,,,0.00,WUHU216DAVISVP2,2012-11-03 09:00:00,
2012-11-03 02:30:00,60.5,29.7,29.86,SSE,158,1.0,4.0,31,0.00,,,0.00,WUHU216DAVISVP2,2012-11-03 09:30:00,
2012-11-03 03:00:00,60.5,29.7,29.86,SSE,158,2.0,5.0,31,0.00,,,0.00,WUHU216DAVISVP2,2012-11-03 10:00:00,
2012-11-03 03:30:00,60.1,29.3,29.86,SE,135,2.0,5.0,31,0.00,,,0.00,WUHU216DAVISVP2,2012-11-03 10:30:00,
2012-11-03 04:00:00,60.1,30.1,29.87,SE,135,2.0,4.0,32,0.00,,,0.00,WUHU216DAVISVP2,2012-11-03 11:00:00,
2012-11-03 04:30:00,59.5,29.6,29.87,SE,135,2.0,4.0,32,0.00,,,0.00,WUHU216DAVISVP2,2012-11-03 11:30:00,
2012-11-03 05:00:00,59.0,30.6,29.87,SE,135,2.0,4.0,34,0.00,,,0.00,WUHU216DAVISVP2,2012-11-03 12:00:00,
2012-11-03 05:30:00,58.4,30.8,29.87,SE,135,1.0,3.0,35,0.00,,,0.00,WUHU216DAVISVP2,2012-11-03 12:30:00,
2012-11-03 06:00:00,56.4,29.7,29.88,ESE,113,1.0,2.0,36,0.00,,,0.00,WUHU216DAVISVP2,2012-11-03 13:00:00,
2012-11-03 06:30:00,55.8,29.9,29.89,SE,135,1.0,2.0,37,0.00,,,0.00,WUHU216DAVISVP2,2012-11-03 13:30:00,
2012-11-03 07:00:00,55.3,30.1,29.90,SE,135,1.0,2.0,38,0.00,,,0.00,WUHU216DAVISVP2,2012-11-03 14:00:00,
2012-11-03 07:30:00,59.6,31.9,29.92,SE,135,2.0,5.0,35,0.00,,,0.00,WUHU216DAVISVP2,2012-11-03 14:30:00,
2012-11-03 08:00:00,62.9,34.1,29.93,SSE,158,3.0,8.0,34,0.00,,,0.00,WUHU216DAVISVP2,2012-11-03 15:00:00,
2012-11-03 08:30:00,66.3,34.7,29.93,ESE,113,2.0,6.0,31,0.00,,,0.00,WUHU216DAVISVP2,2012-11-03 15:30:00,
2012-11-03 09:00:00,69.5,34.9,29.94,ESE,113,2.0,7.0,28,0.00,,,0.00,WUHU216DAVISVP2,2012-11-03 16:00:00,
2012-11-03 09:30:00,72.9,36.9,29.93,SE,135,3.0,6.0,27,0.00,,,0.00,WUHU216DAVISVP2,2012-11-03 16:30:00,
2012-11-03 10:00:00,75.9,38.5,29.93,SSE,158,3.0,7.0,26,0.00,,,0.00,WUHU216DAVISVP2,2012-11-03 17:00:00,
2012-11-03 10:30:00,78.1,37.3,29.93,SSE,158,3.0,6.0,23,0.00,,,0.00,WUHU216DAVISVP2,2012-11-03 17:30:00,
2012-11-03 11:00:00,78.8,36.7,29.92,SSE,158,2.0,5.0,22,0.00,,,0.00,WUHU216DAVISVP2,2012-11-03 18:00:00,
2012-11-03 11:30:00,81.9,36.9,29.92,SSE,158,1.0,4.0,20,0.00,,,0.00,WUHU216DAVISVP2,2012-11-03 18:30:00,
2012-11-03 12:00:00,81.3,33.7,29.91,SW,225,1.0,5.0,18,0.00,,,0.00,WUHU216DAVISVP2,2012-11-03 19:00:00,
2012-11-03 12:30:00,82.6,34.8,29.89,West,270,1.0,5.0,18,0.00,,,0.00,WUHU216DAVISVP2,2012-11-03 19:30:00,
2012-11-03 13:00:00,82.9,33.6,29.88,WNW,293,2.0,6.0,17,0.00,,,0.00,WUHU216DAVISVP2,2012-11-03 20:00:00,
2012-11-03 13:30:00,83.2,33.8,29.87,WNW,293,3.0,7.0,17,0.00,,,0.00,WUHU216DAVISVP2,2012-11-03 20:30:00,
2012-11-03 14:00:00,83.5,34.1,29.87,WNW,293,3.0,7.0,17,0.00,,,0.00,WUHU216DAVISVP2,2012-11-03 21:00:00,
2012-11-03 14:30:00,83.7,34.2,29.86,NW,315,3.0,7.0,17,0.00,,,0.00,WUHU216DAVISVP2,2012-11-03 21:30:00,
2012-11-03 15:00:00,83.5,34.1,29.86,NW,315,3.0,9.0,17,0.00,,,0.00,WUHU216DAVISVP2,2012-11-03 22:00:00,
2012-11-03 15:30:00,83.5,34.1,29.86,NW,315,2.0,7.0,17,0.00,,,0.00,WUHU216DAVISVP2,2012-11-03 22:30:00,
2012-11-03 16:00:00,83.1,35.2,29.86,NW,315,2.0,6.0,18,0.00,,,0.00,WUHU216DAVISVP2,2012-11-03 23:00:00,
2012-11-03 16:30:00,81.9,34.2,29.86,NW,315,2.0,7.0,18,0.00,,,0.00,WUHU216DAVISVP2,2012-11-03 23:30:00,
2012-11-03 17:00:00,80.9,34.8,29.86,NW,315,2.0,6.0,19,0.00,,,0.00,WUHU216DAVISVP2,2012-11-04 00:00:00,
2012-11-03 17:30:00,77.3,35.5,29.86,NW,315,2.0,6.0,22,0.00,,,0.00,WUHU216DAVISVP2,2012-11-04 00:30:00,
2012-11-03 18:00:00,73.7,34.6,29.87,NW,315,1.0,4.0,24,0.00,,,0.00,WUHU216DAVISVP2,2012-11-04 01:00:00,
2012-11-03 18:30:00,68.9,34.4,29.88,North,0,0.0,0.0,28,0.00,,,0.00,WUHU216DAVISVP2,2012-11-04 01:30:00,
2012-11-03 19:00:00,66.4,33.2,29.88,NNW,338,0.0,1.0,29,0.00,,,0.00,WUHU216DAVISVP2,2012-11-04 02:00:00,
2012-11-03 19:30:00,64.7,33.3,29.89,North,0,0.0,0.0,31,0.00,,,0.00,WUHU216DAVISVP2,2012-11-04 02:30:00,
2012-11-03 20:00:00,63.4,32.2,29.89,North,0,0.0,0.0,31,0.00,,,0.00,WUHU216DAVISVP2,2012-11-04 03:00:00,
2012-11-03 20:30:00,63.7,32.5,29.90,ESE,113,0.0,1.0,31,0.00,,,0.00,WUHU216DAVISVP2,2012-11-04 03:30:00,
2012-11-03 21:00:00,63.0,32.7,29.90,ESE,113,0.0,1.0,32,0.00,,,0.00,WUHU216DAVISVP2,2012-11-04 04:00:00,
2012-11-03 21:30:00,61.4,32.0,29.90,ESE,113,0.0,1.0,33,0.00,,,0.00,WUHU216DAVISVP2,2012-11-04 04:30:00,
2012-11-03 22:00:00,61.8,32.4,29.91,ESE,113,0.0,2.0,33,0.00,,,0.00,WUHU216DAVISVP2,2012-11-04 05:00:00,
2012-11-03 22:30:00,60.7,32.1,29.92,SE,135,0.0,1.0,34,0.00,,,0.00,WUHU216DAVISVP2,2012-11-04 05:30:00,
2012-11-03 23:00:00,59.3,31.6,29.92,ESE,113,0.0,1.0,35,0.00,,,0.00,WUHU216DAVISVP2,2012-11-04 06:00:00,
2012-11-03 23:30:00,58.6,31.7,29.93,SE,135,0.0,1.0,36,0.00,,,0.00,WUHU216DAVISVP2,2012-11-04 06:30:00,